Time;durP1;ratioP1;P1;durP2;ratioP2;P2;SDS_P1;SDS_P2;PMS_P1;PMS_P2;Temp;Humidity;BMP_temperature;BMP_pressure;BME280_temperature;BME280_humidity;BME280_pressure;Samples;Min_cycle;Max_cycle;Signal;HPM_P1;HPM_P2
2023/06/24 04:30:48;;;;;;;6.57;3.25;;;18.50;71.10;;;;;;5680720;23;20058;-76
2023/06/24 04:33:13;;;;;;;6.65;3.47;;;18.40;71.50;;;;;;4959000;28;20019;-75
2023/06/24 04:35:39;;;;;;;5.80;3.20;;;18.40;71.40;;;;;;4953688;29;20039;-76
2023/06/24 04:38:04;;;;;;;5.90;3.22;;;18.40;71.40;;;;;;4953317;29;21407;-75
2023/06/24 04:40:30;;;;;;;7.20;3.53;;;18.40;71.50;;;;;;4954484;29;20035;-75
2023/06/24 04:42:56;;;;;;;6.60;3.28;;;18.40;71.40;;;;;;4953186;29;20030;-76
2023/06/24 04:45:21;;;;;;;7.72;4.03;;;18.40;71.90;;;;;;4954450;29;20764;-76
2023/06/24 04:47:47;;;;;;;6.82;3.47;;;18.40;71.90;;;;;;4954386;29;20059;-76
2023/06/24 04:50:13;;;;;;;6.60;3.63;;;18.40;72.10;;;;;;4953376;29;20118;-76
2023/06/24 04:52:39;;;;;;;7.20;3.03;;;18.40;72.20;;;;;;4954253;29;20031;-77
2023/06/24 04:55:05;;;;;;;7.18;3.20;;;18.40;71.90;;;;;;4953685;29;20039;-76
2023/06/24 04:57:32;;;;;;;7.80;3.25;;;18.40;72.30;;;;;;4954166;29;20037;-76
2023/06/24 04:59:58;;;;;;;7.25;3.30;;;18.40;71.60;;;;;;4954183;29;20023;-76
2023/06/24 05:02:24;;;;;;;5.32;3.03;;;18.40;72.40;;;;;;4949693;28;20015;-76
2023/06/24 05:04:52;;;;;;;5.78;3.28;;;18.40;72.50;;;;;;4953908;29;20046;-76
2023/06/24 05:07:18;;;;;;;6.88;3.35;;;18.40;72.20;;;;;;4957272;29;20039;-76
2023/06/24 05:09:46;;;;;;;7.68;3.35;;;18.40;71.90;;;;;;4957554;29;20458;-76
2023/06/24 05:12:12;;;;;;;6.13;3.40;;;18.50;72.10;;;;;;4955298;29;20034;-76
2023/06/24 05:14:38;;;;;;;7.50;3.90;;;18.50;72.20;;;;;;4943589;29;20403;-76
2023/06/24 05:17:04;;;;;;;7.22;3.42;;;18.50;72.20;;;;;;4943499;29;20027;-76
2023/06/24 05:19:29;;;;;;;8.50;4.20;;;18.60;72.30;;;;;;4957664;29;20110;-76
2023/06/24 05:21:55;;;;;;;6.90;3.35;;;18.60;71.80;;;;;;4957539;29;20050;-76
2023/06/24 05:24:21;;;;;;;6.38;3.17;;;18.70;71.90;;;;;;4956806;28;20091;-76
2023/06/24 05:26:50;;;;;;;6.03;3.33;;;18.80;71.70;;;;;;4956386;29;20024;-76
2023/06/24 05:29:17;;;;;;;6.07;2.95;;;18.80;71.40;;;;;;4940207;29;20144;-76
2023/06/24 05:31:42;;;;;;;6.95;3.40;;;18.80;71.80;;;;;;4956517;29;20054;-76
2023/06/24 05:34:08;;;;;;;8.15;3.47;;;18.80;71.40;;;;;;4956330;29;20517;-76
2023/06/24 05:36:34;;;;;;;7.38;3.40;;;18.80;71.10;;;;;;4957154;29;20015;-76
2023/06/24 05:39:00;;;;;;;9.07;3.47;;;18.90;71.30;;;;;;4957313;29;20039;-76
2023/06/24 05:41:26;;;;;;;6.60;3.75;;;18.90;71.30;;;;;;4957297;29;20769;-76
2023/06/24 05:44:04;;;;;;;8.57;3.67;;;19.00;71.20;;;;;;4956416;29;20039;-76
2023/06/24 05:46:31;;;;;;;5.72;3.17;;;19.00;71.40;;;;;;4956574;29;20032;-76
2023/06/24 05:48:56;;;;;;;6.00;3.10;;;19.00;70.90;;;;;;4940307;29;20178;-76
2023/06/24 05:51:22;;;;;;;7.97;3.50;;;19.10;70.60;;;;;;4948983;29;20059;-76
2023/06/24 05:53:47;;;;;;;7.10;3.60;;;19.10;70.50;;;;;;4940186;29;20063;-76
2023/06/24 05:56:13;;;;;;;6.35;3.47;;;19.20;70.70;;;;;;4957211;29;20063;-76
2023/06/24 05:58:39;;;;;;;7.50;3.53;;;19.20;70.60;;;;;;4956092;29;20035;-76
2023/06/24 06:01:04;;;;;;;6.80;3.40;;;19.30;70.60;;;;;;4954379;29;20027;-76
2023/06/24 06:03:31;;;;;;;7.53;3.03;;;19.30;70.50;;;;;;4954785;29;20584;-76
2023/06/24 06:05:57;;;;;;;6.53;3.28;;;19.30;70.00;;;;;;4954249;29;20049;-76
2023/06/24 06:08:22;;;;;;;5.53;3.10;;;19.30;70.20;;;;;;4957092;29;20051;-76
2023/06/24 06:10:48;;;;;;;9.45;4.05;;;19.40;69.90;;;;;;4955512;29;20039;-76
2023/06/24 06:13:13;;;;;;;7.65;3.20;;;19.50;70.10;;;;;;4956135;29;20038;-80
2023/06/24 06:15:39;;;;;;;6.55;3.20;;;19.40;69.90;;;;;;4956878;29;20035;-83
2023/06/24 06:18:05;;;;;;;7.70;3.45;;;19.50;69.60;;;;;;4956521;29;20028;-79
2023/06/24 06:20:30;;;;;;;7.55;3.58;;;19.50;69.90;;;;;;4954551;29;20038;-77
2023/06/24 06:22:56;;;;;;;6.80;3.22;;;19.60;70.00;;;;;;4954838;29;20019;-76
2023/06/24 06:25:22;;;;;;;7.40;3.35;;;19.60;69.90;;;;;;4956960;29;20024;-80
2023/06/24 06:27:48;;;;;;;6.15;3.33;;;19.70;69.20;;;;;;4955940;29;20028;-78
2023/06/24 06:30:14;;;;;;;5.95;3.50;;;19.80;69.60;;;;;;4956623;29;20030;-77
2023/06/24 06:32:39;;;;;;;8.32;3.60;;;19.70;69.90;;;;;;4956776;29;20082;-76
2023/06/24 06:35:06;;;;;;;8.40;4.22;;;19.80;69.60;;;;;;4957286;28;20037;-77
2023/06/24 06:37:32;;;;;;;7.82;3.28;;;19.80;69.70;;;;;;4959304;29;20553;-76
2023/06/24 06:39:57;;;;;;;5.65;3.13;;;19.80;69.70;;;;;;4959770;29;20035;-77
2023/06/24 06:42:23;;;;;;;5.25;3.20;;;19.80;69.80;;;;;;4959683;29;20031;-81
2023/06/24 06:44:49;;;;;;;6.35;3.67;;;19.90;69.60;;;;;;4959088;29;20514;-76
2023/06/24 06:47:14;;;;;;;5.97;2.75;;;20.00;69.30;;;;;;4959801;29;20033;-79
2023/06/24 06:49:40;;;;;;;6.32;3.13;;;20.10;69.70;;;;;;4958853;29;20083;-75
2023/06/24 06:52:06;;;;;;;6.22;3.45;;;20.10;69.70;;;;;;4956643;29;20042;-75
2023/06/24 06:54:31;;;;;;;7.60;3.33;;;20.10;69.50;;;;;;4956635;28;20027;-75
2023/06/24 06:57:04;;;;;;;7.55;3.45;;;20.20;69.50;;;;;;4940761;29;20127;-74
2023/06/24 06:59:31;;;;;;;6.70;3.40;;;20.30;69.20;;;;;;4956304;29;20518;-74
2023/06/24 07:01:56;;;;;;;7.20;3.25;;;20.30;69.20;;;;;;4959707;29;20051;-75
2023/06/24 07:04:22;;;;;;;7.43;3.38;;;20.40;69.70;;;;;;4959897;29;20394;-75
2023/06/24 07:06:48;;;;;;;8.80;3.78;;;20.60;69.50;;;;;;4959414;29;20031;-74
2023/06/24 07:09:14;;;;;;;6.78;3.20;;;20.70;69.00;;;;;;4958246;29;20054;-75
2023/06/24 07:11:41;;;;;;;6.75;2.97;;;20.70;68.50;;;;;;4945368;29;20044;-75
2023/06/24 07:14:06;;;;;;;6.15;3.45;;;20.80;68.40;;;;;;4954479;29;20035;-76
2023/06/24 07:16:32;;;;;;;6.68;3.65;;;20.90;67.20;;;;;;4959403;29;20437;-75
2023/06/24 07:18:58;;;;;;;6.68;3.20;;;21.10;66.60;;;;;;4958015;29;20031;-76
2023/06/24 07:21:23;;;;;;;5.85;3.25;;;21.10;66.50;;;;;;4959110;29;20031;-74
2023/06/24 07:23:49;;;;;;;6.78;3.33;;;21.30;66.50;;;;;;4959500;29;20027;-75
2023/06/24 07:26:15;;;;;;;8.15;3.35;;;21.30;66.50;;;;;;4942092;29;20031;-75
2023/06/24 07:28:40;;;;;;;6.90;3.75;;;21.50;65.60;;;;;;4958946;29;20046;-75
2023/06/24 07:31:06;;;;;;;6.18;3.60;;;21.60;65.40;;;;;;4954814;29;20135;-75
2023/06/24 07:33:32;;;;;;;7.15;3.45;;;21.70;65.40;;;;;;4955421;29;20139;-75
2023/06/24 07:35:58;;;;;;;6.72;3.35;;;21.80;65.60;;;;;;4940130;29;20032;-75
2023/06/24 07:38:23;;;;;;;5.82;3.40;;;22.10;65.10;;;;;;4939697;29;20038;-75
2023/06/24 07:40:49;;;;;;;6.35;3.90;;;22.30;65.00;;;;;;4939639;29;20024;-75
2023/06/24 07:43:14;;;;;;;7.32;3.60;;;22.60;63.70;;;;;;4939782;29;20063;-75
2023/06/24 07:45:40;;;;;;;6.55;2.95;;;23.10;61.90;;;;;;4939838;29;20051;-75
2023/06/24 07:48:07;;;;;;;8.82;3.95;;;24.10;58.40;;;;;;4937626;29;20035;-75
2023/06/24 07:50:34;;;;;;;7.80;4.15;;;25.80;54.50;;;;;;4938092;29;20024;-75
2023/06/24 07:52:59;;;;;;;5.72;3.97;;;28.30;48.40;;;;;;4939867;29;20080;-75
2023/06/24 07:55:25;;;;;;;5.80;3.58;;;31.00;43.30;;;;;;4938389;29;20027;-76
2023/06/24 07:57:51;;;;;;;6.22;3.97;;;32.90;37.00;;;;;;4937850;29;20118;-76
2023/06/24 08:00:17;;;;;;;5.68;3.95;;;34.40;35.70;;;;;;4939633;29;20394;-77
2023/06/24 08:02:42;;;;;;;5.22;3.90;;;35.30;34.00;;;;;;4938992;29;20160;-76
2023/06/24 08:05:09;;;;;;;6.15;4.22;;;36.00;32.80;;;;;;4938414;29;20164;-76
2023/06/24 08:07:35;;;;;;;6.63;4.32;;;36.80;30.90;;;;;;4938893;29;20274;-76
2023/06/24 08:10:01;;;;;;;5.53;4.25;;;37.30;30.30;;;;;;4939300;29;20110;-76
2023/06/24 08:12:26;;;;;;;5.80;4.18;;;37.30;30.30;;;;;;4939009;29;20051;-77
2023/06/24 08:14:52;;;;;;;5.47;4.55;;;37.50;30.10;;;;;;4939402;29;20071;-77
2023/06/24 08:17:18;;;;;;;4.75;4.25;;;38.50;29.90;;;;;;4939483;29;20510;-77
2023/06/24 08:19:43;;;;;;;9.48;5.13;;;38.30;29.50;;;;;;4937973;29;20059;-77
2023/06/24 08:22:09;;;;;;;5.63;4.22;;;38.60;29.60;;;;;;4939199;29;20071;-76
2023/06/24 08:24:36;;;;;;;6.22;4.68;;;39.20;28.10;;;;;;4937324;29;20118;-76
2023/06/24 08:27:01;;;;;;;5.15;4.55;;;39.70;28.10;;;;;;4937713;29;20035;-77
2023/06/24 08:29:27;;;;;;;5.82;4.47;;;39.80;27.40;;;;;;4933955;29;20570;-77
2023/06/24 08:31:53;;;;;;;6.90;4.45;;;39.50;27.90;;;;;;4930513;29;20509;-74
2023/06/24 08:34:18;;;;;;;5.20;4.53;;;39.90;28.40;;;;;;4938108;29;20029;-74
2023/06/24 08:36:44;;;;;;;5.75;4.05;;;39.70;28.20;;;;;;4938321;29;20084;-77
2023/06/24 08:39:09;;;;;;;4.60;3.95;;;39.40;27.00;;;;;;4938608;29;20032;-74
2023/06/24 08:41:35;;;;;;;4.70;4.18;;;38.80;27.70;;;;;;4939010;29;20032;-74
2023/06/24 08:44:01;;;;;;;4.65;4.03;;;38.50;28.30;;;;;;4938424;29;20020;-76
2023/06/24 08:46:27;;;;;;;6.32;3.95;;;38.60;28.80;;;;;;4936399;29;20429;-76
2023/06/24 08:49:22;;;;;;;4.45;4.05;;;38.10;28.30;;;;;;4938835;29;20034;-76
2023/06/24 08:51:54;;;;;;;5.15;3.55;;;37.70;28.40;;;;;;4933130;29;20043;-76
2023/06/24 08:54:21;;;;;;;4.38;3.75;;;38.10;29.50;;;;;;4939096;29;20019;-76
2023/06/24 08:56:47;;;;;;;4.55;3.60;;;38.30;28.80;;;;;;4937164;29;20028;-76
2023/06/24 08:59:12;;;;;;;4.22;3.80;;;38.50;27.40;;;;;;4921070;29;20557;-76
2023/06/24 09:01:38;;;;;;;4.75;3.88;;;38.70;27.80;;;;;;4938248;29;20131;-76
2023/06/24 09:04:04;;;;;;;4.35;3.80;;;39.20;28.10;;;;;;4938763;29;20020;-76
2023/06/24 09:06:31;;;;;;;6.57;3.60;;;39.00;27.60;;;;;;4937146;29;20038;-76
2023/06/24 09:08:57;;;;;;;5.38;3.97;;;39.10;26.70;;;;;;4938538;29;20046;-76
2023/06/24 09:11:27;;;;;;;4.15;3.75;;;39.00;27.10;;;;;;4937903;29;20684;-76
2023/06/24 09:14:00;;;;;;;4.43;3.85;;;39.50;27.50;;;;;;4938388;29;20024;-76
2023/06/24 09:16:26;;;;;;;4.30;3.90;;;39.60;26.30;;;;;;4937952;29;20032;-76
2023/06/24 09:18:53;;;;;;;5.13;3.70;;;39.70;27.60;;;;;;4938307;29;20019;-76
2023/06/24 09:21:30;;;;;;;5.55;3.90;;;39.70;25.90;;;;;;4937376;29;20035;-77
2023/06/24 09:23:57;;;;;;;5.55;3.53;;;39.60;26.30;;;;;;4938009;29;20070;-80
2023/06/24 09:26:24;;;;;;;4.72;3.97;;;39.40;25.60;;;;;;4937464;29;20046;-77
2023/06/24 09:28:50;;;;;;;3.88;3.47;;;39.70;26.20;;;;;;4938397;29;20031;-80
2023/06/24 09:31:17;;;;;;;9.88;9.18;;;39.80;25.30;;;;;;4943259;29;20442;-79
2023/06/24 09:33:43;;;;;;;6.20;4.28;;;39.30;26.20;;;;;;4951627;29;20087;-77
2023/06/24 09:36:13;;;;;;;4.78;4.28;;;39.30;26.10;;;;;;4938333;29;20775;-77
2023/06/24 09:38:41;;;;;;;;;;;39.70;26.10;;;;;;4937651;29;20027;-76
2023/06/24 09:41:08;;;;;;;4.90;4.30;;;39.70;25.60;;;;;;4938115;29;19911;-77
2023/06/24 09:43:39;;;;;;;5.45;3.75;;;40.00;25.70;;;;;;4937675;29;20046;-77
2023/06/24 09:46:05;;;;;;;5.63;5.13;;;39.90;25.40;;;;;;4937067;29;20084;-77
2023/06/24 09:48:32;;;;;;;4.18;3.78;;;39.70;24.50;;;;;;4938021;29;20375;-79
2023/06/24 09:51:03;;;;;;;4.22;3.83;;;39.70;25.70;;;;;;4937498;29;20048;-86
2023/06/24 09:53:34;;;;;;;4.30;3.80;;;39.80;25.00;;;;;;4920540;29;20019;-80
2023/06/24 09:56:03;;;;;;;4.10;3.60;;;39.90;25.40;;;;;;4937229;29;20051;-79
2023/06/24 09:58:34;;;;;;;4.47;4.00;;;40.50;25.10;;;;;;4938165;29;20055;-81
2023/06/24 10:01:04;;;;;;;4.20;3.80;;;40.40;24.20;;;;;;4937043;29;20039;-81
2023/06/24 10:03:36;;;;;;;4.05;3.63;;;40.60;25.40;;;;;;4934599;29;20032;-79
2023/06/24 10:06:02;;;;;;;4.10;3.70;;;40.00;24.60;;;;;;4937940;29;20103;-79
2023/06/24 10:08:31;;;;;;;4.03;3.10;;;40.10;24.90;;;;;;4937737;29;20118;-78
2023/06/24 10:10:58;;;;;;;3.95;3.50;;;40.30;23.50;;;;;;4938167;29;20113;-77
2023/06/24 10:13:25;;;;;;;4.88;3.17;;;39.60;23.50;;;;;;4941639;29;20031;-77
2023/06/24 10:15:51;;;;;;;4.60;3.20;;;39.30;25.00;;;;;;4939114;29;20498;-77
2023/06/24 10:18:32;;;;;;;5.10;3.70;;;39.30;24.90;;;;;;4939159;29;20437;-79
2023/06/24 10:20:58;;;;;;;5.00;3.60;;;39.00;24.50;;;;;;4923596;29;20040;-79
2023/06/24 10:23:42;;;;;;;4.57;3.70;;;38.80;24.20;;;;;;4941376;29;20035;-78
2023/06/24 10:26:28;;;;;;;4.93;3.53;;;38.30;24.90;;;;;;4939270;29;20028;-77
2023/06/24 10:29:06;;;;;;;5.07;3.40;;;37.80;25.20;;;;;;4938030;29;20067;-80
2023/06/24 10:31:44;;;;;;;4.50;3.58;;;37.30;26.80;;;;;;4942459;29;20056;-79
2023/06/24 10:34:19;;;;;;;4.03;3.17;;;36.90;26.70;;;;;;4923460;29;20031;-75
2023/06/24 10:36:54;;;;;;;5.43;3.28;;;36.90;26.20;;;;;;4939654;29;20032;-82
2023/06/24 10:39:44;;;;;;;3.85;2.78;;;36.70;27.60;;;;;;4937221;29;20047;-77
2023/06/24 10:42:29;;;;;;;3.95;2.60;;;36.50;28.30;;;;;;4932481;29;20030;-75
2023/06/24 10:45:00;;;;;;;4.05;2.50;;;36.40;29.00;;;;;;4940247;29;20047;-79
2023/06/24 10:47:27;;;;;;;4.37;2.83;;;35.80;28.60;;;;;;4939365;29;20032;-78
2023/06/24 10:49:53;;;;;;;4.65;2.80;;;35.20;29.50;;;;;;4935474;29;20866;-77
2023/06/24 10:52:21;;;;;;;4.40;2.78;;;34.60;29.60;;;;;;4905352;29;20043;-76
2023/06/24 10:54:47;;;;;;;4.25;2.53;;;34.30;31.10;;;;;;4950877;29;20122;-79
2023/06/24 10:57:13;;;;;;;5.60;2.70;;;33.80;31.20;;;;;;4956929;29;20067;-75
2023/06/24 10:59:51;;;;;;;4.82;2.60;;;33.80;31.80;;;;;;4940130;29;20024;-75
2023/06/24 11:02:22;;;;;;;5.40;3.05;;;33.60;33.00;;;;;;4939431;29;20525;-75
2023/06/24 11:04:57;;;;;;;5.10;2.83;;;33.80;33.00;;;;;;4940833;29;20028;-75
2023/06/24 11:07:26;;;;;;;4.78;2.58;;;33.50;31.70;;;;;;4923629;29;20510;-75
2023/06/24 11:09:58;;;;;;;4.50;2.70;;;33.30;33.00;;;;;;4939835;29;20557;-74
2023/06/24 11:12:25;;;;;;;;;;;33.10;32.50;;;;;;4904938;29;20426;-75
2023/06/24 11:14:51;;;;;;;4.22;2.90;;;33.00;33.90;;;;;;4921620;29;19907;-74
2023/06/24 11:17:16;;;;;;;6.68;3.85;;;32.80;33.60;;;;;;4928873;29;20523;-74
2023/06/24 11:19:43;;;;;;;4.93;2.80;;;32.90;34.40;;;;;;4923443;29;20036;-73
2023/06/24 11:22:09;;;;;;;5.93;2.63;;;32.80;33.10;;;;;;4939828;29;20026;-75
2023/06/24 11:24:35;;;;;;;4.88;3.00;;;32.60;34.70;;;;;;4939149;29;20405;-75
2023/06/24 11:27:02;;;;;;;4.10;2.60;;;32.70;33.70;;;;;;4923092;29;20394;-76
2023/06/24 11:29:32;;;;;;;4.03;2.55;;;32.60;33.40;;;;;;4940357;29;20149;-75
2023/06/24 11:31:58;;;;;;;4.78;2.28;;;32.70;35.50;;;;;;4939086;29;20130;-75
2023/06/24 11:34:24;;;;;;;4.97;2.72;;;32.30;33.00;;;;;;4936153;29;20038;-74
2023/06/24 11:36:49;;;;;;;4.35;2.67;;;32.30;33.70;;;;;;4940025;29;20398;-74
2023/06/24 11:39:25;;;;;;;3.90;2.40;;;32.30;34.50;;;;;;4940085;29;20043;-74
2023/06/24 11:41:52;;;;;;;5.82;2.45;;;32.30;33.70;;;;;;4938645;29;20516;-75
2023/06/24 11:44:23;;;;;;;4.55;2.60;;;32.40;33.50;;;;;;4937103;29;20053;-77
2023/06/24 11:46:49;;;;;;;4.80;2.70;;;32.50;33.40;;;;;;4938778;29;20034;-80
2023/06/24 11:49:15;;;;;;;4.47;2.45;;;32.30;33.30;;;;;;4935473;29;20032;-79
2023/06/24 11:51:48;;;;;;;4.80;2.50;;;32.30;33.00;;;;;;4939168;29;20024;-74
2023/06/24 11:54:16;;;;;;;4.22;2.60;;;32.30;34.50;;;;;;4919974;29;20028;-77
2023/06/24 11:56:43;;;;;;;5.15;2.50;;;32.40;34.40;;;;;;4939101;29;20027;-77
2023/06/24 11:59:24;;;;;;;4.28;2.53;;;32.40;33.50;;;;;;4943183;29;20406;-82
2023/06/24 12:01:58;;;;;;;4.70;2.78;;;32.30;33.00;;;;;;4900887;29;20066;-81
2023/06/24 12:04:33;;;;;;;4.22;2.80;;;32.30;33.80;;;;;;4932024;29;20090;-80
2023/06/24 12:06:59;;;;;;;4.55;2.50;;;32.30;33.60;;;;;;4928629;29;20034;-80
2023/06/24 12:09:25;;;;;;;4.72;2.60;;;32.30;33.90;;;;;;4932882;29;20032;-80
2023/06/24 12:11:52;;;;;;;4.63;2.17;;;32.40;33.20;;;;;;4930561;29;20035;-80
2023/06/24 12:14:18;;;;;;;3.95;2.47;;;32.30;33.20;;;;;;4932416;29;20775;-80
2023/06/24 12:16:44;;;;;;;4.18;2.30;;;32.30;32.30;;;;;;4932000;29;20031;-77
2023/06/24 12:19:10;;;;;;;4.13;2.45;;;32.00;31.60;;;;;;4932340;29;20044;-77
2023/06/24 12:21:36;;;;;;;4.40;2.40;;;32.00;32.10;;;;;;4916865;29;20031;-80
2023/06/24 12:24:02;;;;;;;4.32;2.35;;;31.90;33.50;;;;;;4930295;29;20040;-80
2023/06/24 12:26:27;;;;;;;5.47;2.67;;;32.00;31.60;;;;;;4933378;29;20031;-78
2023/06/24 12:28:56;;;;;;;4.88;2.67;;;31.90;32.10;;;;;;4931668;29;20063;-79
2023/06/24 12:31:23;;;;;;;4.82;2.55;;;32.00;34.20;;;;;;4942212;29;20047;-79
2023/06/24 12:33:50;;;;;;;4.97;2.85;;;32.00;32.50;;;;;;4921872;29;20023;-79
2023/06/24 12:36:15;;;;;;;6.28;2.78;;;32.00;31.90;;;;;;4951545;29;20028;-79
2023/06/24 12:38:41;;;;;;;4.38;2.67;;;32.10;31.90;;;;;;4951544;29;20035;-79
2023/06/24 12:41:06;;;;;;;5.72;2.60;;;31.90;31.10;;;;;;4922080;29;20031;-79
2023/06/24 12:43:33;;;;;;;5.03;2.60;;;32.00;32.60;;;;;;4951650;29;20123;-79
2023/06/24 12:45:58;;;;;;;4.28;2.78;;;32.10;33.70;;;;;;4952205;29;20027;-79
2023/06/24 12:48:24;;;;;;;4.32;2.45;;;32.10;33.40;;;;;;4942349;29;20042;-80
2023/06/24 12:50:53;;;;;;;6.55;2.88;;;32.10;33.40;;;;;;4951946;29;20035;-80
2023/06/24 12:53:19;;;;;;;4.50;2.10;;;32.10;32.20;;;;;;4952095;29;20458;-80
2023/06/24 12:55:45;;;;;;;5.65;2.58;;;31.90;30.30;;;;;;4941586;29;20035;-80
2023/06/24 12:58:10;;;;;;;4.15;2.50;;;31.80;30.80;;;;;;4951947;29;20433;-80
2023/06/24 13:00:36;;;;;;;4.43;2.40;;;31.70;32.60;;;;;;4952502;29;20058;-80
2023/06/24 13:03:01;;;;;;;4.88;2.80;;;31.80;32.10;;;;;;4952933;29;20042;-79
2023/06/24 13:05:27;;;;;;;4.50;2.78;;;31.70;31.90;;;;;;4952210;29;20034;-78
2023/06/24 13:07:53;;;;;;;4.63;2.63;;;31.50;32.70;;;;;;4951423;29;20035;-76
2023/06/24 13:10:18;;;;;;;4.32;2.80;;;31.60;31.00;;;;;;4952900;29;20031;-78
2023/06/24 13:12:44;;;;;;;5.82;2.72;;;31.60;32.00;;;;;;4952865;28;20019;-80
2023/06/24 13:15:10;;;;;;;4.40;2.53;;;31.60;30.60;;;;;;4932979;29;20031;-80
2023/06/24 13:17:36;;;;;;;4.93;2.42;;;31.70;31.80;;;;;;4935389;29;20496;-79
2023/06/24 13:20:04;;;;;;;4.60;2.50;;;31.80;32.40;;;;;;4952769;29;20031;-80
2023/06/24 13:22:30;;;;;;;4.28;2.85;;;31.80;30.80;;;;;;4952730;29;20800;-78
2023/06/24 13:24:56;;;;;;;4.93;2.60;;;31.90;32.20;;;;;;4952092;29;20031;-79
2023/06/24 13:27:21;;;;;;;4.30;2.63;;;31.90;32.10;;;;;;4952925;29;20049;-78
2023/06/24 13:29:47;;;;;;;4.20;2.63;;;31.90;31.20;;;;;;4927326;29;20023;-77
2023/06/24 13:32:13;;;;;;;5.10;2.42;;;31.80;30.60;;;;;;4941299;29;20054;-79
2023/06/24 13:34:39;;;;;;;5.18;2.70;;;31.60;31.00;;;;;;4953111;29;20504;-78
2023/06/24 13:37:05;;;;;;;3.72;2.20;;;31.60;32.40;;;;;;4952379;29;20035;-79
2023/06/24 13:39:31;;;;;;;4.53;2.45;;;31.60;32.10;;;;;;4935491;29;20032;-79
2023/06/24 13:41:57;;;;;;;5.15;2.45;;;31.70;31.80;;;;;;4947080;29;20091;-78
2023/06/24 13:44:23;;;;;;;6.57;2.67;;;31.70;31.80;;;;;;4935602;29;20582;-82
2023/06/24 13:46:50;;;;;;;4.25;2.42;;;31.60;31.40;;;;;;4939439;29;20132;-78
2023/06/24 13:49:15;;;;;;;4.18;2.40;;;31.70;31.40;;;;;;4926021;29;20035;-79
2023/06/24 13:51:42;;;;;;;4.43;2.50;;;31.80;31.20;;;;;;4956064;29;20455;-84
2023/06/24 13:54:07;;;;;;;4.22;2.15;;;31.80;31.50;;;;;;4955756;29;20030;-85
2023/06/24 13:56:33;;;;;;;4.10;2.22;;;31.80;31.20;;;;;;4955223;29;20118;-80
2023/06/24 13:58:59;;;;;;;5.13;2.45;;;31.70;31.20;;;;;;4955894;29;20039;-82
2023/06/24 14:01:28;;;;;;;4.95;2.63;;;31.70;33.40;;;;;;4956264;29;20127;-88
2023/06/24 14:03:54;;;;;;;4.93;2.63;;;31.80;32.10;;;;;;4956435;29;20063;-79
2023/06/24 14:06:21;;;;;;;4.47;2.83;;;31.80;35.40;;;;;;4956451;28;20035;-80
2023/06/24 14:08:47;;;;;;;4.40;2.45;;;32.00;33.80;;;;;;4923937;29;20034;-78
2023/06/24 14:11:14;;;;;;;4.20;2.40;;;31.90;31.00;;;;;;4954278;29;20031;-78
2023/06/24 14:13:41;;;;;;;3.80;2.38;;;31.90;31.10;;;;;;4958902;29;20466;-80
2023/06/24 14:16:06;;;;;;;4.32;2.67;;;32.00;32.50;;;;;;4955852;29;20030;-82
2023/06/24 14:18:33;;;;;;;4.40;2.58;;;31.90;31.30;;;;;;4957600;29;20474;-83
2023/06/24 14:20:59;;;;;;;4.85;2.40;;;31.90;32.90;;;;;;4943180;29;20031;-77
2023/06/24 14:23:25;;;;;;;4.32;2.22;;;32.10;32.20;;;;;;4960060;29;20039;-83
2023/06/24 14:25:52;;;;;;;4.75;2.65;;;31.80;29.60;;;;;;4960535;29;20038;-79
2023/06/24 14:28:17;;;;;;;4.57;2.30;;;31.90;32.30;;;;;;4960155;29;20037;-78
2023/06/24 14:30:45;;;;;;;4.65;2.53;;;32.00;33.00;;;;;;4960434;29;20118;-86
2023/06/24 14:33:12;;;;;;;4.25;2.47;;;32.00;32.50;;;;;;4957994;29;20040;-82
2023/06/24 14:35:38;;;;;;;5.50;2.90;;;32.10;32.20;;;;;;4943208;29;20026;-83
2023/06/24 14:38:03;;;;;;;4.25;2.20;;;32.10;31.70;;;;;;4960093;29;20035;-80
2023/06/24 14:40:29;;;;;;;4.40;2.60;;;32.10;32.70;;;;;;4942481;29;20512;-83
2023/06/24 14:42:55;;;;;;;4.65;2.53;;;32.20;32.70;;;;;;4943172;29;20079;-80
2023/06/24 14:45:20;;;;;;;4.15;2.50;;;32.00;30.80;;;;;;4958461;29;20031;-84
2023/06/24 14:47:46;;;;;;;4.55;2.88;;;31.90;30.80;;;;;;4943023;29;20478;-83
2023/06/24 14:50:12;;;;;;;4.30;2.55;;;31.90;32.60;;;;;;4958999;29;20525;-78
2023/06/24 14:52:37;;;;;;;5.13;2.58;;;32.10;32.00;;;;;;4936802;29;20035;-79
2023/06/24 14:55:03;;;;;;;3.40;2.20;;;32.10;31.10;;;;;;4959904;29;20059;-82
2023/06/24 14:57:29;;;;;;;4.00;2.40;;;32.10;31.90;;;;;;4956497;28;20079;-82
2023/06/24 14:59:54;;;;;;;4.10;2.45;;;32.00;30.50;;;;;;4934369;29;20524;-81
2023/06/24 15:02:20;;;;;;;5.28;2.50;;;32.10;32.20;;;;;;4941406;29;20576;-83
2023/06/24 15:04:45;;;;;;;4.63;2.33;;;32.20;31.40;;;;;;4953532;29;20023;-82
2023/06/24 15:07:11;;;;;;;4.68;2.65;;;32.30;30.50;;;;;;4955000;29;20872;-82
2023/06/24 15:09:37;;;;;;;4.85;2.60;;;32.10;29.70;;;;;;4938027;29;20024;-81
2023/06/24 15:12:03;;;;;;;4.05;2.38;;;31.90;29.90;;;;;;4955535;29;20036;-83
2023/06/24 15:14:28;;;;;;;3.78;2.13;;;31.90;30.70;;;;;;4937111;29;20023;-88
2023/06/24 15:16:57;;;;;;;4.30;2.70;;;31.90;28.60;;;;;;4937304;29;20031;-86
2023/06/24 15:19:23;;;;;;;4.80;2.53;;;31.90;29.50;;;;;;4955111;29;20110;-87
2023/06/24 15:21:49;;;;;;;4.32;2.47;;;31.90;29.60;;;;;;4955302;29;20047;-85
2023/06/24 15:24:14;;;;;;;4.28;2.45;;;31.90;30.10;;;;;;4953165;29;20131;-82
2023/06/24 15:26:40;;;;;;;4.22;2.35;;;31.90;29.90;;;;;;4955246;29;20027;-84
2023/06/24 15:29:05;;;;;;;4.00;2.20;;;31.90;30.50;;;;;;4926356;29;20095;-83
2023/06/24 15:31:31;;;;;;;4.30;2.50;;;32.00;30.50;;;;;;4953196;28;20043;-81
2023/06/24 15:33:57;;;;;;;5.30;2.60;;;32.00;29.20;;;;;;4954271;29;20640;-82
2023/06/24 15:36:26;;;;;;;5.07;2.75;;;31.90;29.60;;;;;;4941654;29;20118;-83
2023/06/24 15:38:52;;;;;;;5.05;2.53;;;31.90;29.30;;;;;;4953189;28;20071;-82
2023/06/24 15:41:18;;;;;;;4.53;2.75;;;31.80;29.00;;;;;;4925501;29;20514;-82
2023/06/24 15:43:44;;;;;;;3.67;2.35;;;31.80;29.20;;;;;;4954611;29;20103;-80
2023/06/24 15:46:12;;;;;;;4.32;2.47;;;31.90;30.70;;;;;;4938074;29;20035;-79
2023/06/24 15:48:38;;;;;;;4.82;2.47;;;31.90;30.50;;;;;;4953572;29;20039;-82
2023/06/24 15:51:04;;;;;;;4.65;2.40;;;32.00;30.30;;;;;;4953663;29;20095;-80
2023/06/24 15:53:29;;;;;;;4.53;2.55;;;32.00;30.70;;;;;;4952775;29;20664;-84
2023/06/24 15:55:55;;;;;;;5.30;2.95;;;32.00;29.80;;;;;;4953564;29;20058;-82
2023/06/24 15:58:21;;;;;;;4.93;2.78;;;31.80;28.90;;;;;;4954559;29;20546;-87
2023/06/24 16:00:46;;;;;;;4.63;2.80;;;31.70;28.30;;;;;;4953699;29;20031;-78
2023/06/24 16:03:12;;;;;;;5.22;2.53;;;31.80;28.60;;;;;;4953319;29;20114;-80
2023/06/24 16:05:38;;;;;;;5.28;2.70;;;31.80;29.10;;;;;;4953812;29;20046;-83
2023/06/24 16:08:04;;;;;;;5.85;2.97;;;31.80;28.70;;;;;;4950840;28;20031;-86
2023/06/24 16:10:29;;;;;;;4.47;2.55;;;31.80;29.20;;;;;;4951935;28;20119;-79
2023/06/24 16:12:55;;;;;;;4.70;3.00;;;31.90;29.70;;;;;;4954193;29;20023;-80
2023/06/24 16:15:21;;;;;;;5.07;2.80;;;31.90;29.20;;;;;;4953946;28;20041;-83
2023/06/24 16:17:47;;;;;;;5.47;2.85;;;31.80;29.30;;;;;;4952093;29;20441;-81
2023/06/24 16:20:16;;;;;;;5.40;2.92;;;31.80;29.90;;;;;;4954225;29;20038;-82
2023/06/24 16:22:42;;;;;;;5.40;2.70;;;31.80;30.30;;;;;;4938202;29;20027;-81
2023/06/24 16:25:08;;;;;;;4.85;2.90;;;31.60;29.80;;;;;;4954342;28;20512;-83
2023/06/24 16:27:34;;;;;;;4.90;3.03;;;31.50;30.20;;;;;;4952843;29;20114;-83
2023/06/24 16:29:59;;;;;;;4.97;2.90;;;31.60;30.70;;;;;;4953002;29;20031;-87
2023/06/24 16:32:25;;;;;;;4.63;2.60;;;31.60;30.90;;;;;;4962587;28;20074;-82
2023/06/24 16:34:51;;;;;;;5.10;3.00;;;31.70;30.50;;;;;;4959892;28;20570;-81
2023/06/24 16:37:16;;;;;;;5.18;2.53;;;31.60;29.90;;;;;;4968749;28;20109;-79
2023/06/24 16:39:42;;;;;;;5.68;2.75;;;31.50;29.10;;;;;;4953860;28;20791;-78
2023/06/24 16:42:08;;;;;;;5.20;2.90;;;31.50;29.80;;;;;;4924619;28;20062;-80
2023/06/24 16:44:37;;;;;;;5.47;2.67;;;31.60;30.10;;;;;;4972123;28;20134;-77
2023/06/24 16:47:03;;;;;;;6.40;3.20;;;31.40;29.60;;;;;;4953498;28;20485;-77
2023/06/24 16:49:29;;;;;;;4.70;2.97;;;31.40;30.00;;;;;;4955912;28;20079;-77
2023/06/24 16:51:54;;;;;;;4.57;2.40;;;31.40;29.80;;;;;;4964763;28;20127;-78
2023/06/24 16:54:21;;;;;;;5.20;3.03;;;31.40;30.60;;;;;;4966899;28;20023;-81
2023/06/24 16:56:47;;;;;;;5.30;2.92;;;31.40;30.50;;;;;;4956198;28;20026;-82
2023/06/24 16:59:13;;;;;;;6.10;3.05;;;31.30;29.60;;;;;;4957656;28;20071;-86
2023/06/24 17:01:39;;;;;;;4.93;2.95;;;31.30;30.30;;;;;;4954309;28;20106;-81
2023/06/24 17:04:04;;;;;;;5.22;3.03;;;31.30;31.10;;;;;;4923825;28;20039;-80
2023/06/24 17:06:31;;;;;;;6.05;2.95;;;31.40;31.20;;;;;;4954071;28;20027;-78
2023/06/24 17:08:57;;;;;;;10.07;3.35;;;31.40;30.80;;;;;;4955790;28;20462;-79
2023/06/24 17:11:23;;;;;;;5.38;3.38;;;31.30;29.50;;;;;;4925805;28;20046;-81
2023/06/24 17:13:49;;;;;;;5.75;3.10;;;31.20;30.40;;;;;;4956085;28;20509;-80
2023/06/24 17:16:15;;;;;;;5.95;3.05;;;31.20;29.90;;;;;;4957977;28;20780;-84